sensor_id;sensor_type;location;lat;lon;timestamp;P1;durP1;ratioP1;P2;durP2;ratioP2
24650;SDS011;12783;48.824;8.662;2023-02-23T00:01:16;32.65;;;19.00;;
24650;SDS011;12783;48.824;8.662;2023-02-23T00:04:02;29.95;;;18.70;;
24650;SDS011;12783;48.824;8.662;2023-02-23T00:06:29;37.80;;;19.58;;
24650;SDS011;12783;48.824;8.662;2023-02-23T00:08:58;38.35;;;20.02;;
24650;SDS011;12783;48.824;8.662;2023-02-23T00:11:26;31.17;;;18.83;;
24650;SDS011;12783;48.824;8.662;2023-02-23T00:13:53;34.92;;;19.42;;
24650;SDS011;12783;48.824;8.662;2023-02-23T00:16:23;35.72;;;19.25;;
24650;SDS011;12783;48.824;8.662;2023-02-23T00:18:51;30.42;;;18.85;;
24650;SDS011;12783;48.824;8.662;2023-02-23T00:23:57;30.60;;;19.15;;
24650;SDS011;12783;48.824;8.662;2023-02-23T00:26:26;31.40;;;18.50;;
24650;SDS011;12783;48.824;8.662;2023-02-23T00:28:56;33.90;;;18.45;;
24650;SDS011;12783;48.824;8.662;2023-02-23T00:31:23;34.75;;;17.63;;
24650;SDS011;12783;48.824;8.662;2023-02-23T00:33:52;29.70;;;17.50;;
24650;SDS011;12783;48.824;8.662;2023-02-23T00:36:21;30.50;;;16.95;;
24650;SDS011;12783;48.824;8.662;2023-02-23T00:38:53;29.20;;;16.85;;
24650;SDS011;12783;48.824;8.662;2023-02-23T00:41:21;29.30;;;16.02;;
24650;SDS011;12783;48.824;8.662;2023-02-23T00:43:49;27.42;;;16.60;;
24650;SDS011;12783;48.824;8.662;2023-02-23T00:46:16;25.13;;;15.63;;
24650;SDS011;12783;48.824;8.662;2023-02-23T00:48:46;28.98;;;16.35;;
24650;SDS011;12783;48.824;8.662;2023-02-23T00:51:15;27.27;;;15.13;;
24650;SDS011;12783;48.824;8.662;2023-02-23T00:53:43;23.55;;;14.68;;
24650;SDS011;12783;48.824;8.662;2023-02-23T00:56:11;22.70;;;13.43;;
24650;SDS011;12783;48.824;8.662;2023-02-23T00:58:39;22.77;;;13.75;;
24650;SDS011;12783;48.824;8.662;2023-02-23T01:01:06;26.60;;;13.80;;
24650;SDS011;12783;48.824;8.662;2023-02-23T01:03:35;21.80;;;13.85;;
24650;SDS011;12783;48.824;8.662;2023-02-23T01:06:03;24.13;;;14.00;;
24650;SDS011;12783;48.824;8.662;2023-02-23T01:08:32;21.42;;;14.07;;
24650;SDS011;12783;48.824;8.662;2023-02-23T01:11:04;23.95;;;13.27;;
24650;SDS011;12783;48.824;8.662;2023-02-23T01:13:32;23.60;;;13.48;;
24650;SDS011;12783;48.824;8.662;2023-02-23T01:15:58;23.13;;;13.52;;
24650;SDS011;12783;48.824;8.662;2023-02-23T01:18:25;23.73;;;14.25;;
24650;SDS011;12783;48.824;8.662;2023-02-23T01:20:52;23.83;;;15.52;;
24650;SDS011;12783;48.824;8.662;2023-02-23T01:23:18;23.88;;;14.13;;
24650;SDS011;12783;48.824;8.662;2023-02-23T01:25:46;28.45;;;15.52;;
24650;SDS011;12783;48.824;8.662;2023-02-23T01:28:13;23.85;;;14.65;;
24650;SDS011;12783;48.824;8.662;2023-02-23T01:30:39;22.42;;;13.98;;
24650;SDS011;12783;48.824;8.662;2023-02-23T01:33:06;22.55;;;14.05;;
24650;SDS011;12783;48.824;8.662;2023-02-23T01:35:33;26.05;;;13.63;;
24650;SDS011;12783;48.824;8.662;2023-02-23T01:38:00;19.45;;;11.88;;
24650;SDS011;12783;48.824;8.662;2023-02-23T01:40:27;22.83;;;12.27;;
24650;SDS011;12783;48.824;8.662;2023-02-23T01:42:58;21.60;;;12.35;;
24650;SDS011;12783;48.824;8.662;2023-02-23T01:45:37;18.98;;;11.40;;
24650;SDS011;12783;48.824;8.662;2023-02-23T01:48:06;18.92;;;11.70;;
24650;SDS011;12783;48.824;8.662;2023-02-23T01:50:41;21.08;;;12.38;;
24650;SDS011;12783;48.824;8.662;2023-02-23T01:53:10;20.98;;;11.32;;
24650;SDS011;12783;48.824;8.662;2023-02-23T01:55:37;19.05;;;11.80;;
24650;SDS011;12783;48.824;8.662;2023-02-23T01:58:06;19.52;;;10.90;;
24650;SDS011;12783;48.824;8.662;2023-02-23T02:00:41;19.00;;;10.82;;
24650;SDS011;12783;48.824;8.662;2023-02-23T02:03:14;17.38;;;10.60;;
24650;SDS011;12783;48.824;8.662;2023-02-23T02:05:49;17.35;;;10.70;;
24650;SDS011;12783;48.824;8.662;2023-02-23T02:08:16;16.60;;;10.40;;
24650;SDS011;12783;48.824;8.662;2023-02-23T02:10:44;17.35;;;9.95;;
24650;SDS011;12783;48.824;8.662;2023-02-23T02:13:15;16.10;;;10.38;;
24650;SDS011;12783;48.824;8.662;2023-02-23T02:15:50;15.35;;;9.48;;
24650;SDS011;12783;48.824;8.662;2023-02-23T02:18:31;13.98;;;9.50;;
24650;SDS011;12783;48.824;8.662;2023-02-23T02:27:32;27.90;;;14.85;;
24650;SDS011;12783;48.824;8.662;2023-02-23T02:38:44;14.75;;;9.02;;
24650;SDS011;12783;48.824;8.662;2023-02-23T02:41:19;16.35;;;8.50;;
24650;SDS011;12783;48.824;8.662;2023-02-23T02:43:59;14.50;;;7.90;;
24650;SDS011;12783;48.824;8.662;2023-02-23T02:46:37;15.85;;;7.82;;
24650;SDS011;12783;48.824;8.662;2023-02-23T02:49:12;19.77;;;7.60;;
24650;SDS011;12783;48.824;8.662;2023-02-23T02:52:00;11.32;;;6.53;;
24650;SDS011;12783;48.824;8.662;2023-02-23T02:54:38;10.55;;;6.68;;
24650;SDS011;12783;48.824;8.662;2023-02-23T02:57:07;15.43;;;6.93;;
24650;SDS011;12783;48.824;8.662;2023-02-23T02:59:44;10.43;;;6.15;;
24650;SDS011;12783;48.824;8.662;2023-02-23T03:02:33;13.82;;;6.32;;
24650;SDS011;12783;48.824;8.662;2023-02-23T03:05:27;12.13;;;7.00;;
24650;SDS011;12783;48.824;8.662;2023-02-23T03:11:08;11.93;;;7.25;;
24650;SDS011;12783;48.824;8.662;2023-02-23T03:20:28;10.80;;;6.50;;
24650;SDS011;12783;48.824;8.662;2023-02-23T03:23:36;11.70;;;6.70;;
24650;SDS011;12783;48.824;8.662;2023-02-23T03:26:55;11.00;;;6.93;;
24650;SDS011;12783;48.824;8.662;2023-02-23T03:29:59;10.50;;;6.63;;
24650;SDS011;12783;48.824;8.662;2023-02-23T03:32:55;9.73;;;6.13;;
24650;SDS011;12783;48.824;8.662;2023-02-23T03:39:11;11.65;;;6.40;;
24650;SDS011;12783;48.824;8.662;2023-02-23T03:42:23;14.50;;;10.02;;
24650;SDS011;12783;48.824;8.662;2023-02-23T03:45:13;16.25;;;11.00;;
24650;SDS011;12783;48.824;8.662;2023-02-23T03:48:02;26.77;;;15.50;;
24650;SDS011;12783;48.824;8.662;2023-02-23T03:50:50;21.73;;;12.55;;
24650;SDS011;12783;48.824;8.662;2023-02-23T03:53:40;30.38;;;15.52;;
24650;SDS011;12783;48.824;8.662;2023-02-23T03:56:39;23.05;;;13.57;;
24650;SDS011;12783;48.824;8.662;2023-02-23T03:59:28;14.45;;;8.27;;
24650;SDS011;12783;48.824;8.662;2023-02-23T04:02:16;10.48;;;6.15;;
24650;SDS011;12783;48.824;8.662;2023-02-23T04:05:04;10.48;;;5.60;;
24650;SDS011;12783;48.824;8.662;2023-02-23T04:07:52;10.98;;;5.75;;
24650;SDS011;12783;48.824;8.662;2023-02-23T04:10:44;8.30;;;5.45;;
24650;SDS011;12783;48.824;8.662;2023-02-23T04:16:01;8.35;;;5.30;;
24650;SDS011;12783;48.824;8.662;2023-02-23T04:18:34;7.03;;;4.57;;
24650;SDS011;12783;48.824;8.662;2023-02-23T04:21:02;8.38;;;4.35;;
24650;SDS011;12783;48.824;8.662;2023-02-23T04:23:30;8.18;;;4.40;;
24650;SDS011;12783;48.824;8.662;2023-02-23T04:25:57;8.00;;;4.43;;
24650;SDS011;12783;48.824;8.662;2023-02-23T04:28:24;11.68;;;6.10;;
24650;SDS011;12783;48.824;8.662;2023-02-23T04:30:52;13.60;;;6.35;;
24650;SDS011;12783;48.824;8.662;2023-02-23T04:33:19;10.85;;;5.82;;
24650;SDS011;12783;48.824;8.662;2023-02-23T04:35:47;12.10;;;6.03;;
24650;SDS011;12783;48.824;8.662;2023-02-23T04:38:14;7.10;;;4.45;;
24650;SDS011;12783;48.824;8.662;2023-02-23T04:40:41;6.80;;;3.85;;
24650;SDS011;12783;48.824;8.662;2023-02-23T04:43:09;5.47;;;3.97;;
24650;SDS011;12783;48.824;8.662;2023-02-23T04:45:39;6.32;;;3.85;;
24650;SDS011;12783;48.824;8.662;2023-02-23T04:48:06;4.88;;;3.08;;
24650;SDS011;12783;48.824;8.662;2023-02-23T04:50:33;5.22;;;2.90;;
24650;SDS011;12783;48.824;8.662;2023-02-23T04:53:00;5.93;;;3.63;;
24650;SDS011;12783;48.824;8.662;2023-02-23T04:55:27;4.78;;;3.05;;
24650;SDS011;12783;48.824;8.662;2023-02-23T04:57:57;5.55;;;3.13;;
24650;SDS011;12783;48.824;8.662;2023-02-23T05:00:26;4.28;;;3.10;;
24650;SDS011;12783;48.824;8.662;2023-02-23T05:02:54;5.88;;;3.25;;
24650;SDS011;12783;48.824;8.662;2023-02-23T05:05:21;6.13;;;3.20;;
24650;SDS011;12783;48.824;8.662;2023-02-23T05:07:47;5.50;;;2.90;;
24650;SDS011;12783;48.824;8.662;2023-02-23T05:10:14;6.10;;;2.90;;
24650;SDS011;12783;48.824;8.662;2023-02-23T05:12:41;8.30;;;2.92;;
24650;SDS011;12783;48.824;8.662;2023-02-23T05:15:08;4.25;;;2.90;;
24650;SDS011;12783;48.824;8.662;2023-02-23T05:17:36;6.38;;;3.33;;
24650;SDS011;12783;48.824;8.662;2023-02-23T05:20:06;4.57;;;3.40;;
24650;SDS011;12783;48.824;8.662;2023-02-23T05:22:37;7.93;;;3.13;;
24650;SDS011;12783;48.824;8.662;2023-02-23T05:25:04;6.40;;;3.08;;
24650;SDS011;12783;48.824;8.662;2023-02-23T05:27:32;8.35;;;3.25;;
24650;SDS011;12783;48.824;8.662;2023-02-23T05:29:59;5.88;;;2.70;;
24650;SDS011;12783;48.824;8.662;2023-02-23T05:32:26;4.47;;;2.60;;
24650;SDS011;12783;48.824;8.662;2023-02-23T05:34:53;8.20;;;3.22;;
24650;SDS011;12783;48.824;8.662;2023-02-23T05:37:20;7.30;;;3.00;;
24650;SDS011;12783;48.824;8.662;2023-02-23T05:39:47;8.07;;;2.92;;
24650;SDS011;12783;48.824;8.662;2023-02-23T05:42:13;8.35;;;3.15;;
24650;SDS011;12783;48.824;8.662;2023-02-23T05:44:40;8.30;;;3.08;;
24650;SDS011;12783;48.824;8.662;2023-02-23T05:47:07;4.90;;;2.97;;
24650;SDS011;12783;48.824;8.662;2023-02-23T05:49:34;6.80;;;3.60;;
24650;SDS011;12783;48.824;8.662;2023-02-23T05:52:00;5.85;;;3.45;;
24650;SDS011;12783;48.824;8.662;2023-02-23T05:54:27;7.68;;;3.08;;
24650;SDS011;12783;48.824;8.662;2023-02-23T05:56:54;6.00;;;3.50;;
24650;SDS011;12783;48.824;8.662;2023-02-23T05:59:20;8.00;;;3.70;;
24650;SDS011;12783;48.824;8.662;2023-02-23T06:01:47;7.15;;;3.88;;
24650;SDS011;12783;48.824;8.662;2023-02-23T06:04:14;10.13;;;3.30;;
24650;SDS011;12783;48.824;8.662;2023-02-23T06:06:42;8.30;;;3.83;;
24650;SDS011;12783;48.824;8.662;2023-02-23T06:09:09;9.48;;;3.42;;
24650;SDS011;12783;48.824;8.662;2023-02-23T06:11:36;5.63;;;2.97;;
24650;SDS011;12783;48.824;8.662;2023-02-23T06:14:02;7.55;;;3.58;;
24650;SDS011;12783;48.824;8.662;2023-02-23T06:16:29;13.10;;;5.80;;
24650;SDS011;12783;48.824;8.662;2023-02-23T06:18:57;10.43;;;4.43;;
24650;SDS011;12783;48.824;8.662;2023-02-23T06:21:23;6.80;;;3.05;;
24650;SDS011;12783;48.824;8.662;2023-02-23T06:23:50;11.10;;;3.65;;
24650;SDS011;12783;48.824;8.662;2023-02-23T06:26:18;6.30;;;3.10;;
24650;SDS011;12783;48.824;8.662;2023-02-23T06:28:45;9.27;;;3.05;;
24650;SDS011;12783;48.824;8.662;2023-02-23T06:31:12;5.13;;;2.88;;
24650;SDS011;12783;48.824;8.662;2023-02-23T06:33:39;5.75;;;3.20;;
24650;SDS011;12783;48.824;8.662;2023-02-23T06:36:06;12.00;;;3.53;;
24650;SDS011;12783;48.824;8.662;2023-02-23T06:38:32;8.93;;;3.40;;
24650;SDS011;12783;48.824;8.662;2023-02-23T06:40:59;5.07;;;3.08;;
24650;SDS011;12783;48.824;8.662;2023-02-23T06:43:35;5.93;;;3.00;;
24650;SDS011;12783;48.824;8.662;2023-02-23T06:46:02;7.22;;;3.03;;
24650;SDS011;12783;48.824;8.662;2023-02-23T06:48:29;5.78;;;2.97;;
24650;SDS011;12783;48.824;8.662;2023-02-23T06:50:59;6.35;;;3.00;;
24650;SDS011;12783;48.824;8.662;2023-02-23T06:53:25;6.40;;;3.13;;
24650;SDS011;12783;48.824;8.662;2023-02-23T06:55:52;7.72;;;3.25;;
24650;SDS011;12783;48.824;8.662;2023-02-23T06:58:19;5.25;;;3.05;;
24650;SDS011;12783;48.824;8.662;2023-02-23T07:00:46;4.57;;;3.22;;
24650;SDS011;12783;48.824;8.662;2023-02-23T07:03:12;7.25;;;3.42;;
24650;SDS011;12783;48.824;8.662;2023-02-23T07:05:39;8.18;;;3.25;;
24650;SDS011;12783;48.824;8.662;2023-02-23T07:08:06;7.18;;;3.38;;
24650;SDS011;12783;48.824;8.662;2023-02-23T07:10:33;6.30;;;3.65;;
24650;SDS011;12783;48.824;8.662;2023-02-23T07:13:00;6.65;;;3.65;;
24650;SDS011;12783;48.824;8.662;2023-02-23T07:15:27;9.18;;;3.67;;
24650;SDS011;12783;48.824;8.662;2023-02-23T07:17:53;8.25;;;3.70;;
24650;SDS011;12783;48.824;8.662;2023-02-23T07:20:20;8.18;;;3.65;;
24650;SDS011;12783;48.824;8.662;2023-02-23T07:22:47;9.77;;;3.80;;
24650;SDS011;12783;48.824;8.662;2023-02-23T07:25:14;9.60;;;3.70;;
24650;SDS011;12783;48.824;8.662;2023-02-23T07:27:40;10.50;;;3.90;;
24650;SDS011;12783;48.824;8.662;2023-02-23T07:30:08;5.90;;;3.28;;
24650;SDS011;12783;48.824;8.662;2023-02-23T07:32:35;7.03;;;3.55;;
24650;SDS011;12783;48.824;8.662;2023-02-23T07:35:03;7.53;;;2.97;;
24650;SDS011;12783;48.824;8.662;2023-02-23T07:37:30;9.32;;;3.50;;
24650;SDS011;12783;48.824;8.662;2023-02-23T07:39:57;5.68;;;2.80;;
24650;SDS011;12783;48.824;8.662;2023-02-23T07:42:26;6.25;;;3.83;;
24650;SDS011;12783;48.824;8.662;2023-02-23T07:44:53;9.07;;;3.70;;
24650;SDS011;12783;48.824;8.662;2023-02-23T07:47:20;5.13;;;3.40;;
24650;SDS011;12783;48.824;8.662;2023-02-23T07:49:47;10.13;;;4.30;;
24650;SDS011;12783;48.824;8.662;2023-02-23T07:52:16;6.80;;;4.05;;
24650;SDS011;12783;48.824;8.662;2023-02-23T07:54:44;6.22;;;4.00;;
24650;SDS011;12783;48.824;8.662;2023-02-23T07:57:10;6.65;;;3.88;;
24650;SDS011;12783;48.824;8.662;2023-02-23T07:59:38;8.95;;;4.70;;
24650;SDS011;12783;48.824;8.662;2023-02-23T08:02:04;11.25;;;4.30;;
24650;SDS011;12783;48.824;8.662;2023-02-23T08:04:32;7.30;;;3.72;;
24650;SDS011;12783;48.824;8.662;2023-02-23T08:06:59;8.23;;;3.55;;
24650;SDS011;12783;48.824;8.662;2023-02-23T08:09:25;10.27;;;3.78;;
24650;SDS011;12783;48.824;8.662;2023-02-23T08:11:52;8.05;;;3.28;;
24650;SDS011;12783;48.824;8.662;2023-02-23T08:14:19;7.07;;;3.17;;
24650;SDS011;12783;48.824;8.662;2023-02-23T08:16:48;5.05;;;2.25;;
24650;SDS011;12783;48.824;8.662;2023-02-23T08:19:17;8.02;;;3.20;;
24650;SDS011;12783;48.824;8.662;2023-02-23T08:21:44;7.43;;;2.95;;
24650;SDS011;12783;48.824;8.662;2023-02-23T08:24:10;5.30;;;2.58;;
24650;SDS011;12783;48.824;8.662;2023-02-23T08:26:37;8.95;;;2.90;;
24650;SDS011;12783;48.824;8.662;2023-02-23T08:29:04;7.05;;;3.10;;
24650;SDS011;12783;48.824;8.662;2023-02-23T08:31:31;6.90;;;3.58;;
24650;SDS011;12783;48.824;8.662;2023-02-23T08:33:58;5.75;;;2.50;;
24650;SDS011;12783;48.824;8.662;2023-02-23T08:36:24;7.60;;;2.60;;
24650;SDS011;12783;48.824;8.662;2023-02-23T08:38:51;7.50;;;2.90;;
24650;SDS011;12783;48.824;8.662;2023-02-23T08:41:19;6.32;;;2.20;;
24650;SDS011;12783;48.824;8.662;2023-02-23T08:43:47;5.50;;;2.40;;
24650;SDS011;12783;48.824;8.662;2023-02-23T08:46:14;3.28;;;2.13;;
24650;SDS011;12783;48.824;8.662;2023-02-23T08:48:43;5.88;;;2.53;;
24650;SDS011;12783;48.824;8.662;2023-02-23T08:51:12;5.93;;;2.88;;
24650;SDS011;12783;48.824;8.662;2023-02-23T08:53:39;4.75;;;2.67;;
24650;SDS011;12783;48.824;8.662;2023-02-23T08:56:06;9.05;;;2.70;;
24650;SDS011;12783;48.824;8.662;2023-02-23T08:58:35;4.60;;;2.50;;
24650;SDS011;12783;48.824;8.662;2023-02-23T09:01:02;3.20;;;2.03;;
24650;SDS011;12783;48.824;8.662;2023-02-23T09:03:31;8.40;;;2.80;;
24650;SDS011;12783;48.824;8.662;2023-02-23T09:06:06;4.70;;;2.47;;
24650;SDS011;12783;48.824;8.662;2023-02-23T09:08:34;10.75;;;2.80;;
24650;SDS011;12783;48.824;8.662;2023-02-23T09:11:01;9.32;;;2.47;;
24650;SDS011;12783;48.824;8.662;2023-02-23T09:13:28;5.40;;;2.42;;
24650;SDS011;12783;48.824;8.662;2023-02-23T09:15:55;5.32;;;2.30;;
24650;SDS011;12783;48.824;8.662;2023-02-23T09:18:22;9.13;;;2.60;;
24650;SDS011;12783;48.824;8.662;2023-02-23T09:20:49;5.50;;;2.17;;
24650;SDS011;12783;48.824;8.662;2023-02-23T09:23:16;7.85;;;3.00;;
24650;SDS011;12783;48.824;8.662;2023-02-23T09:25:43;5.47;;;2.70;;
24650;SDS011;12783;48.824;8.662;2023-02-23T09:28:11;7.32;;;3.10;;
24650;SDS011;12783;48.824;8.662;2023-02-23T09:30:40;9.20;;;2.83;;
24650;SDS011;12783;48.824;8.662;2023-02-23T09:33:08;7.35;;;4.28;;
24650;SDS011;12783;48.824;8.662;2023-02-23T09:35:35;9.77;;;4.05;;
24650;SDS011;12783;48.824;8.662;2023-02-23T09:38:03;7.05;;;3.92;;
24650;SDS011;12783;48.824;8.662;2023-02-23T09:43:23;4.03;;;2.20;;
24650;SDS011;12783;48.824;8.662;2023-02-23T09:46:50;2.55;;;1.95;;
24650;SDS011;12783;48.824;8.662;2023-02-23T09:49:10;6.20;;;2.38;;
24650;SDS011;12783;48.824;8.662;2023-02-23T09:51:39;7.95;;;1.92;;
24650;SDS011;12783;48.824;8.662;2023-02-23T09:54:09;8.48;;;2.33;;
24650;SDS011;12783;48.824;8.662;2023-02-23T09:56:37;5.43;;;2.33;;
24650;SDS011;12783;48.824;8.662;2023-02-23T09:59:09;5.80;;;1.90;;
24650;SDS011;12783;48.824;8.662;2023-02-23T10:01:42;7.35;;;2.10;;
24650;SDS011;12783;48.824;8.662;2023-02-23T10:06:53;6.40;;;2.00;;
24650;SDS011;12783;48.824;8.662;2023-02-23T10:17:48;2.75;;;1.83;;
24650;SDS011;12783;48.824;8.662;2023-02-23T10:23:44;3.65;;;1.40;;
24650;SDS011;12783;48.824;8.662;2023-02-23T10:26:43;5.25;;;2.20;;
24650;SDS011;12783;48.824;8.662;2023-02-23T10:29:20;5.05;;;2.05;;
24650;SDS011;12783;48.824;8.662;2023-02-23T10:32:02;7.95;;;2.10;;
24650;SDS011;12783;48.824;8.662;2023-02-23T10:34:52;3.95;;;1.83;;
24650;SDS011;12783;48.824;8.662;2023-02-23T10:37:22;5.13;;;2.05;;
24650;SDS011;12783;48.824;8.662;2023-02-23T10:39:50;6.07;;;2.40;;
24650;SDS011;12783;48.824;8.662;2023-02-23T10:42:19;5.85;;;2.63;;
24650;SDS011;12783;48.824;8.662;2023-02-23T10:44:48;3.90;;;2.50;;
24650;SDS011;12783;48.824;8.662;2023-02-23T10:47:16;4.93;;;2.55;;
24650;SDS011;12783;48.824;8.662;2023-02-23T10:49:46;6.03;;;2.53;;
24650;SDS011;12783;48.824;8.662;2023-02-23T10:52:28;10.88;;;3.50;;
24650;SDS011;12783;48.824;8.662;2023-02-23T10:57:50;9.75;;;3.35;;
24650;SDS011;12783;48.824;8.662;2023-02-23T11:00:55;8.20;;;2.95;;
24650;SDS011;12783;48.824;8.662;2023-02-23T11:03:45;10.20;;;3.83;;
24650;SDS011;12783;48.824;8.662;2023-02-23T11:06:30;6.95;;;3.63;;
24650;SDS011;12783;48.824;8.662;2023-02-23T11:09:15;13.00;;;4.65;;
24650;SDS011;12783;48.824;8.662;2023-02-23T11:12:20;10.82;;;5.18;;
24650;SDS011;12783;48.824;8.662;2023-02-23T11:14:51;11.10;;;5.68;;
24650;SDS011;12783;48.824;8.662;2023-02-23T11:17:32;9.80;;;5.80;;
24650;SDS011;12783;48.824;8.662;2023-02-23T11:20:13;13.55;;;6.38;;
24650;SDS011;12783;48.824;8.662;2023-02-23T11:22:50;11.15;;;5.93;;
24650;SDS011;12783;48.824;8.662;2023-02-23T11:25:23;10.00;;;6.13;;
24650;SDS011;12783;48.824;8.662;2023-02-23T11:27:55;9.70;;;5.65;;
24650;SDS011;12783;48.824;8.662;2023-02-23T11:30:23;10.32;;;6.40;;
24650;SDS011;12783;48.824;8.662;2023-02-23T11:32:55;10.18;;;6.00;;
24650;SDS011;12783;48.824;8.662;2023-02-23T11:35:26;12.98;;;6.50;;
24650;SDS011;12783;48.824;8.662;2023-02-23T11:37:54;15.82;;;7.60;;
24650;SDS011;12783;48.824;8.662;2023-02-23T11:40:22;11.73;;;6.70;;
24650;SDS011;12783;48.824;8.662;2023-02-23T11:43:05;10.45;;;6.38;;
24650;SDS011;12783;48.824;8.662;2023-02-23T11:45:44;9.27;;;5.80;;
24650;SDS011;12783;48.824;8.662;2023-02-23T11:48:18;9.65;;;6.72;;
24650;SDS011;12783;48.824;8.662;2023-02-23T11:50:47;8.80;;;6.03;;
24650;SDS011;12783;48.824;8.662;2023-02-23T11:53:16;12.98;;;6.18;;
24650;SDS011;12783;48.824;8.662;2023-02-23T11:55:54;17.05;;;5.90;;
24650;SDS011;12783;48.824;8.662;2023-02-23T11:58:41;12.68;;;6.50;;
24650;SDS011;12783;48.824;8.662;2023-02-23T12:01:10;11.75;;;6.50;;
24650;SDS011;12783;48.824;8.662;2023-02-23T12:03:43;14.90;;;6.00;;
24650;SDS011;12783;48.824;8.662;2023-02-23T12:09:26;9.77;;;5.03;;
24650;SDS011;12783;48.824;8.662;2023-02-23T12:12:02;7.25;;;3.65;;
24650;SDS011;12783;48.824;8.662;2023-02-23T12:17:07;7.18;;;3.95;;
24650;SDS011;12783;48.824;8.662;2023-02-23T12:19:39;12.02;;;4.85;;
24650;SDS011;12783;48.824;8.662;2023-02-23T12:22:12;10.38;;;5.13;;
24650;SDS011;12783;48.824;8.662;2023-02-23T12:31:05;12.95;;;5.57;;
24650;SDS011;12783;48.824;8.662;2023-02-23T12:34:09;11.15;;;6.15;;
24650;SDS011;12783;48.824;8.662;2023-02-23T12:36:59;13.68;;;6.28;;
24650;SDS011;12783;48.824;8.662;2023-02-23T12:39:35;11.27;;;5.78;;
24650;SDS011;12783;48.824;8.662;2023-02-23T12:45:16;10.65;;;5.53;;
24650;SDS011;12783;48.824;8.662;2023-02-23T12:47:52;11.48;;;5.63;;
24650;SDS011;12783;48.824;8.662;2023-02-23T12:50:49;13.60;;;6.90;;
24650;SDS011;12783;48.824;8.662;2023-02-23T12:55:58;19.63;;;9.02;;
24650;SDS011;12783;48.824;8.662;2023-02-23T13:01:11;22.20;;;8.48;;
24650;SDS011;12783;48.824;8.662;2023-02-23T13:03:44;15.30;;;8.68;;
24650;SDS011;12783;48.824;8.662;2023-02-23T13:06:27;19.63;;;9.50;;
24650;SDS011;12783;48.824;8.662;2023-02-23T13:12:03;21.67;;;11.63;;
24650;SDS011;12783;48.824;8.662;2023-02-23T13:14:50;17.65;;;10.00;;
24650;SDS011;12783;48.824;8.662;2023-02-23T13:17:30;21.10;;;9.80;;
24650;SDS011;12783;48.824;8.662;2023-02-23T13:20:03;22.65;;;9.95;;
24650;SDS011;12783;48.824;8.662;2023-02-23T13:22:33;19.13;;;10.07;;
24650;SDS011;12783;48.824;8.662;2023-02-23T13:28:05;21.42;;;9.38;;
24650;SDS011;12783;48.824;8.662;2023-02-23T13:30:34;18.42;;;9.55;;
24650;SDS011;12783;48.824;8.662;2023-02-23T13:33:12;22.67;;;10.00;;
24650;SDS011;12783;48.824;8.662;2023-02-23T13:36:03;19.02;;;10.68;;
24650;SDS011;12783;48.824;8.662;2023-02-23T13:38:39;21.88;;;10.15;;
24650;SDS011;12783;48.824;8.662;2023-02-23T13:41:21;24.13;;;10.50;;
24650;SDS011;12783;48.824;8.662;2023-02-23T13:44:15;21.17;;;10.40;;
24650;SDS011;12783;48.824;8.662;2023-02-23T13:47:04;16.63;;;9.80;;
24650;SDS011;12783;48.824;8.662;2023-02-23T13:49:40;17.33;;;9.55;;
24650;SDS011;12783;48.824;8.662;2023-02-23T13:52:30;20.30;;;10.27;;
24650;SDS011;12783;48.824;8.662;2023-02-23T13:58:03;17.02;;;9.80;;
24650;SDS011;12783;48.824;8.662;2023-02-23T14:00:31;17.42;;;10.18;;
24650;SDS011;12783;48.824;8.662;2023-02-23T14:03:01;16.10;;;8.95;;
24650;SDS011;12783;48.824;8.662;2023-02-23T14:05:30;20.10;;;9.70;;
24650;SDS011;12783;48.824;8.662;2023-02-23T14:08:03;14.93;;;9.40;;
24650;SDS011;12783;48.824;8.662;2023-02-23T14:10:40;19.48;;;10.05;;
24650;SDS011;12783;48.824;8.662;2023-02-23T14:15:43;18.02;;;9.98;;
24650;SDS011;12783;48.824;8.662;2023-02-23T14:20:55;15.30;;;6.95;;
24650;SDS011;12783;48.824;8.662;2023-02-23T14:23:47;10.20;;;5.82;;
24650;SDS011;12783;48.824;8.662;2023-02-23T14:29:10;14.20;;;6.05;;
24650;SDS011;12783;48.824;8.662;2023-02-23T14:31:52;9.15;;;5.22;;
24650;SDS011;12783;48.824;8.662;2023-02-23T14:34:19;12.82;;;5.97;;
24650;SDS011;12783;48.824;8.662;2023-02-23T14:36:48;12.40;;;7.03;;
24650;SDS011;12783;48.824;8.662;2023-02-23T14:39:21;14.88;;;6.70;;
24650;SDS011;12783;48.824;8.662;2023-02-23T14:41:54;16.08;;;7.50;;
24650;SDS011;12783;48.824;8.662;2023-02-23T14:47:03;8.50;;;4.68;;
24650;SDS011;12783;48.824;8.662;2023-02-23T14:49:47;8.38;;;4.40;;
24650;SDS011;12783;48.824;8.662;2023-02-23T14:54:51;9.15;;;5.93;;
24650;SDS011;12783;48.824;8.662;2023-02-23T14:57:23;9.30;;;5.28;;
24650;SDS011;12783;48.824;8.662;2023-02-23T14:59:52;10.90;;;6.03;;
24650;SDS011;12783;48.824;8.662;2023-02-23T15:02:22;13.95;;;6.07;;
24650;SDS011;12783;48.824;8.662;2023-02-23T15:04:51;12.75;;;6.95;;
24650;SDS011;12783;48.824;8.662;2023-02-23T15:07:27;13.35;;;6.68;;
24650;SDS011;12783;48.824;8.662;2023-02-23T15:10:09;19.52;;;9.00;;
24650;SDS011;12783;48.824;8.662;2023-02-23T15:12:40;16.88;;;8.98;;
24650;SDS011;12783;48.824;8.662;2023-02-23T15:15:12;16.17;;;9.20;;
24650;SDS011;12783;48.824;8.662;2023-02-23T15:17:43;18.38;;;9.93;;
24650;SDS011;12783;48.824;8.662;2023-02-23T15:20:18;22.15;;;11.57;;
24650;SDS011;12783;48.824;8.662;2023-02-23T15:22:54;22.42;;;10.85;;
24650;SDS011;12783;48.824;8.662;2023-02-23T15:25:24;24.23;;;11.68;;
24650;SDS011;12783;48.824;8.662;2023-02-23T15:27:58;22.40;;;12.02;;
24650;SDS011;12783;48.824;8.662;2023-02-23T15:30:26;25.58;;;12.00;;
24650;SDS011;12783;48.824;8.662;2023-02-23T15:33:03;22.23;;;11.35;;
24650;SDS011;12783;48.824;8.662;2023-02-23T15:35:38;20.05;;;11.15;;
24650;SDS011;12783;48.824;8.662;2023-02-23T15:38:25;19.75;;;11.05;;
24650;SDS011;12783;48.824;8.662;2023-02-23T15:41:11;26.90;;;12.15;;
24650;SDS011;12783;48.824;8.662;2023-02-23T15:43:42;24.92;;;11.57;;
24650;SDS011;12783;48.824;8.662;2023-02-23T15:46:11;26.58;;;11.82;;
24650;SDS011;12783;48.824;8.662;2023-02-23T15:48:52;19.50;;;10.48;;
24650;SDS011;12783;48.824;8.662;2023-02-23T15:51:21;26.40;;;12.85;;
24650;SDS011;12783;48.824;8.662;2023-02-23T15:53:53;23.13;;;11.10;;
24650;SDS011;12783;48.824;8.662;2023-02-23T15:56:29;21.15;;;11.15;;
24650;SDS011;12783;48.824;8.662;2023-02-23T15:59:10;30.17;;;12.25;;
24650;SDS011;12783;48.824;8.662;2023-02-23T16:01:43;24.15;;;11.75;;
24650;SDS011;12783;48.824;8.662;2023-02-23T16:11:59;27.05;;;12.68;;
24650;SDS011;12783;48.824;8.662;2023-02-23T16:17:17;28.60;;;13.13;;
24650;SDS011;12783;48.824;8.662;2023-02-23T16:19:47;31.38;;;14.05;;
24650;SDS011;12783;48.824;8.662;2023-02-23T16:22:18;32.55;;;13.98;;
24650;SDS011;12783;48.824;8.662;2023-02-23T16:24:56;26.90;;;14.18;;
24650;SDS011;12783;48.824;8.662;2023-02-23T16:27:30;32.03;;;14.13;;
24650;SDS011;12783;48.824;8.662;2023-02-23T16:29:58;28.30;;;13.50;;
24650;SDS011;12783;48.824;8.662;2023-02-23T16:32:34;32.10;;;14.15;;
24650;SDS011;12783;48.824;8.662;2023-02-23T16:35:17;26.30;;;13.65;;
24650;SDS011;12783;48.824;8.662;2023-02-23T16:38:07;23.67;;;13.07;;
24650;SDS011;12783;48.824;8.662;2023-02-23T16:40:38;30.67;;;13.35;;
24650;SDS011;12783;48.824;8.662;2023-02-23T16:43:06;27.70;;;12.77;;
24650;SDS011;12783;48.824;8.662;2023-02-23T16:45:33;23.60;;;13.02;;
24650;SDS011;12783;48.824;8.662;2023-02-23T16:48:00;25.45;;;12.98;;
24650;SDS011;12783;48.824;8.662;2023-02-23T16:50:29;23.90;;;11.88;;
24650;SDS011;12783;48.824;8.662;2023-02-23T16:52:57;26.85;;;12.10;;
24650;SDS011;12783;48.824;8.662;2023-02-23T16:55:26;23.30;;;12.52;;